Etusivu
METAR-TAF:

METAR-TAF

Lentoasemat :

Tortola, Brittiläiset Neitsytsaaret

Leveyspiiri: 18-27N, Pituuspiiri: 064-32W, korkeus merenpinnasta: 4 m

Tämänhetkinen sää

Tämä raportti tehtiin 7 tuntia ja 49 minuuttia sitten, kello 02.00 UTC
Tuuli 5 kn idästä
Lämpötila 28°C
Kosteus 79%
Ilmanpaine 1015 hPa
Näkyvyys: 16.1 km
Hajanaisia pilviä 2200 ft:n korkeudessa

METAR: TUPJ 210200Z 10005KT 10SM SCT022 28/24 A2996 RMK Q1014 VIS16KM

Aika: 05:49 (09:49 UTC)

Sääennuste

Tämä raportti tehtiin 16 tuntia ja 49 minuuttia sitten, kello 17.00 UTC
Ennuste voimassa 20. päivästä klo 18 UTC - 21. päivään klo 18 UTC
Tuuli 9 kn idästä/kaakosta
Näkyvyys 10 km tai enemmän
Hajanaisia pilviä 2200 ft:n korkeudessa

TAF: TUPJ 201700Z 2018/2118 11009KT 9999 SCT022

Säähavainnot ja -ennusteet yli 4000 lentoasemalta (METAR- ja TAF-raportit).

Käytössä olevat sääasemat on merkitty karttaan keltaisilla ja punaisilla pisteillä.

Aseta hiiri pisteen päälle nähdäksesi sääaseman nimen.

Klikkaa sitten nähdäksesi säähavainnot ja -ennusteet.

Kartan vaihtaminen: klikkaa mustalla rastilla varustettuja vihreitä pisteitä, niin voit zoomata sisään; viivalla varustettua vihreää pistettä, niin voit zoomata ulos tai vihreitä nuolia, niin pääset viereisille kartoille.


METAR-TAF: